sensor_id;sensor_type;location;lat;lon;timestamp;P1;durP1;ratioP1;P2;durP2;ratioP2
51184;SDS011;37248;59.350;18.050;2023-02-11T00:01:07;12.63;;;1.60;;
51184;SDS011;37248;59.350;18.050;2023-02-11T00:03:33;7.57;;;1.27;;
51184;SDS011;37248;59.350;18.050;2023-02-11T00:06:02;9.07;;;1.40;;
51184;SDS011;37248;59.350;18.050;2023-02-11T00:08:27;11.43;;;1.80;;
51184;SDS011;37248;59.350;18.050;2023-02-11T00:10:53;8.23;;;1.08;;
51184;SDS011;37248;59.350;18.050;2023-02-11T00:13:19;13.52;;;1.23;;
51184;SDS011;37248;59.350;18.050;2023-02-11T00:15:44;6.13;;;0.80;;
51184;SDS011;37248;59.350;18.050;2023-02-11T00:18:10;10.27;;;1.40;;
51184;SDS011;37248;59.350;18.050;2023-02-11T00:20:37;9.07;;;1.40;;
51184;SDS011;37248;59.350;18.050;2023-02-11T00:23:02;15.68;;;1.48;;
51184;SDS011;37248;59.350;18.050;2023-02-11T00:25:27;6.13;;;1.20;;
51184;SDS011;37248;59.350;18.050;2023-02-11T00:27:52;6.83;;;0.83;;
51184;SDS011;37248;59.350;18.050;2023-02-11T00:30:18;14.40;;;1.33;;
51184;SDS011;37248;59.350;18.050;2023-02-11T00:32:43;8.57;;;1.40;;
51184;SDS011;37248;59.350;18.050;2023-02-11T00:35:08;5.57;;;0.80;;
51184;SDS011;37248;59.350;18.050;2023-02-11T00:37:34;10.93;;;1.17;;
51184;SDS011;37248;59.350;18.050;2023-02-11T00:40:01;5.72;;;0.80;;
51184;SDS011;37248;59.350;18.050;2023-02-11T00:42:26;7.68;;;1.10;;
51184;SDS011;37248;59.350;18.050;2023-02-11T00:44:51;4.57;;;0.87;;
51184;SDS011;37248;59.350;18.050;2023-02-11T00:47:16;6.73;;;0.73;;
51184;SDS011;37248;59.350;18.050;2023-02-11T00:49:42;4.67;;;0.77;;
51184;SDS011;37248;59.350;18.050;2023-02-11T00:52:07;6.67;;;0.83;;
51184;SDS011;37248;59.350;18.050;2023-02-11T00:54:32;9.40;;;0.90;;
51184;SDS011;37248;59.350;18.050;2023-02-11T00:56:57;3.47;;;0.90;;
51184;SDS011;37248;59.350;18.050;2023-02-11T00:59:23;4.57;;;0.80;;
51184;SDS011;37248;59.350;18.050;2023-02-11T01:01:48;6.40;;;1.00;;
51184;SDS011;37248;59.350;18.050;2023-02-11T01:04:13;6.20;;;0.70;;
51184;SDS011;37248;59.350;18.050;2023-02-11T01:06:41;7.60;;;0.80;;
51184;SDS011;37248;59.350;18.050;2023-02-11T01:09:06;4.32;;;0.60;;
51184;SDS011;37248;59.350;18.050;2023-02-11T01:11:31;4.83;;;0.70;;
51184;SDS011;37248;59.350;18.050;2023-02-11T01:13:57;5.90;;;0.50;;
51184;SDS011;37248;59.350;18.050;2023-02-11T01:16:22;4.00;;;0.50;;
51184;SDS011;37248;59.350;18.050;2023-02-11T01:18:47;3.15;;;0.50;;
51184;SDS011;37248;59.350;18.050;2023-02-11T01:21:12;2.10;;;0.37;;
51184;SDS011;37248;59.350;18.050;2023-02-11T01:23:41;4.90;;;0.70;;
51184;SDS011;37248;59.350;18.050;2023-02-11T01:26:06;3.40;;;0.40;;
51184;SDS011;37248;59.350;18.050;2023-02-11T01:28:32;4.20;;;0.53;;
51184;SDS011;37248;59.350;18.050;2023-02-11T01:30:58;4.07;;;0.50;;
51184;SDS011;37248;59.350;18.050;2023-02-11T01:33:23;3.40;;;0.50;;
51184;SDS011;37248;59.350;18.050;2023-02-11T01:35:49;3.40;;;0.77;;
51184;SDS011;37248;59.350;18.050;2023-02-11T01:38:15;3.93;;;0.60;;
51184;SDS011;37248;59.350;18.050;2023-02-11T01:40:45;3.20;;;0.50;;
51184;SDS011;37248;59.350;18.050;2023-02-11T01:43:10;4.63;;;0.88;;
51184;SDS011;37248;59.350;18.050;2023-02-11T01:48:12;2.80;;;0.50;;
51184;SDS011;37248;59.350;18.050;2023-02-11T01:50:37;5.45;;;0.60;;
51184;SDS011;37248;59.350;18.050;2023-02-11T01:53:07;3.35;;;0.95;;
51184;SDS011;37248;59.350;18.050;2023-02-11T01:55:51;2.37;;;0.50;;
51184;SDS011;37248;59.350;18.050;2023-02-11T01:58:35;1.50;;;0.30;;
51184;SDS011;37248;59.350;18.050;2023-02-11T02:01:02;3.97;;;0.50;;
51184;SDS011;37248;59.350;18.050;2023-02-11T02:03:28;1.25;;;0.35;;
51184;SDS011;37248;59.350;18.050;2023-02-11T02:11:00;3.70;;;0.57;;
51184;SDS011;37248;59.350;18.050;2023-02-11T02:13:27;1.88;;;0.40;;
51184;SDS011;37248;59.350;18.050;2023-02-11T02:15:54;2.40;;;0.98;;
51184;SDS011;37248;59.350;18.050;2023-02-11T02:27:01;8.70;;;0.50;;
51184;SDS011;37248;59.350;18.050;2023-02-11T02:37:32;3.38;;;0.70;;
51184;SDS011;37248;59.350;18.050;2023-02-11T02:40:00;2.55;;;0.50;;
51184;SDS011;37248;59.350;18.050;2023-02-11T02:42:27;2.53;;;0.40;;
51184;SDS011;37248;59.350;18.050;2023-02-11T02:44:52;5.90;;;0.60;;
51184;SDS011;37248;59.350;18.050;2023-02-11T02:47:19;2.83;;;0.60;;
51184;SDS011;37248;59.350;18.050;2023-02-11T02:49:44;1.83;;;0.43;;
51184;SDS011;37248;59.350;18.050;2023-02-11T03:05:55;1.98;;;0.60;;
51184;SDS011;37248;59.350;18.050;2023-02-11T03:08:23;1.10;;;0.30;;
51184;SDS011;37248;59.350;18.050;2023-02-11T03:10:49;1.55;;;0.30;;
51184;SDS011;37248;59.350;18.050;2023-02-11T03:13:16;5.50;;;0.60;;
51184;SDS011;37248;59.350;18.050;2023-02-11T03:15:44;4.00;;;0.55;;
51184;SDS011;37248;59.350;18.050;2023-02-11T03:18:12;1.50;;;0.30;;
51184;SDS011;37248;59.350;18.050;2023-02-11T03:20:39;1.60;;;0.30;;
51184;SDS011;37248;59.350;18.050;2023-02-11T03:26:04;2.65;;;0.45;;
51184;SDS011;37248;59.350;18.050;2023-02-11T03:28:50;1.23;;;0.40;;
51184;SDS011;37248;59.350;18.050;2023-02-11T03:36:45;2.42;;;0.22;;
51184;SDS011;37248;59.350;18.050;2023-02-11T03:39:11;0.65;;;0.20;;
51184;SDS011;37248;59.350;18.050;2023-02-11T03:41:36;2.70;;;0.30;;
51184;SDS011;37248;59.350;18.050;2023-02-11T03:44:02;2.60;;;0.38;;
51184;SDS011;37248;59.350;18.050;2023-02-11T03:46:32;1.73;;;0.27;;
51184;SDS011;37248;59.350;18.050;2023-02-11T03:49:03;1.50;;;0.30;;
51184;SDS011;37248;59.350;18.050;2023-02-11T03:51:30;1.70;;;0.30;;
51184;SDS011;37248;59.350;18.050;2023-02-11T03:53:57;1.50;;;0.20;;
51184;SDS011;37248;59.350;18.050;2023-02-11T03:56:25;1.30;;;0.50;;
51184;SDS011;37248;59.350;18.050;2023-02-11T03:58:51;1.90;;;0.40;;
51184;SDS011;37248;59.350;18.050;2023-02-11T04:01:16;1.23;;;0.20;;
51184;SDS011;37248;59.350;18.050;2023-02-11T04:03:41;2.27;;;0.33;;
51184;SDS011;37248;59.350;18.050;2023-02-11T04:06:07;2.17;;;0.30;;
51184;SDS011;37248;59.350;18.050;2023-02-11T04:08:32;3.30;;;0.30;;
51184;SDS011;37248;59.350;18.050;2023-02-11T04:10:57;0.60;;;0.20;;
51184;SDS011;37248;59.350;18.050;2023-02-11T04:13:23;1.37;;;0.33;;
51184;SDS011;37248;59.350;18.050;2023-02-11T04:15:48;1.30;;;0.30;;
51184;SDS011;37248;59.350;18.050;2023-02-11T04:18:13;4.23;;;0.50;;
51184;SDS011;37248;59.350;18.050;2023-02-11T04:20:42;0.80;;;0.30;;
51184;SDS011;37248;59.350;18.050;2023-02-11T04:23:07;2.63;;;0.30;;
51184;SDS011;37248;59.350;18.050;2023-02-11T04:25:32;1.70;;;0.30;;
51184;SDS011;37248;59.350;18.050;2023-02-11T04:27:57;1.03;;;0.30;;
51184;SDS011;37248;59.350;18.050;2023-02-11T04:30:23;2.87;;;0.40;;
51184;SDS011;37248;59.350;18.050;2023-02-11T04:32:48;1.87;;;0.30;;
51184;SDS011;37248;59.350;18.050;2023-02-11T04:35:13;1.07;;;0.23;;
51184;SDS011;37248;59.350;18.050;2023-02-11T04:37:41;3.87;;;0.40;;
51184;SDS011;37248;59.350;18.050;2023-02-11T04:40:07;0.75;;;0.28;;
51184;SDS011;37248;59.350;18.050;2023-02-11T04:42:32;0.80;;;0.30;;
51184;SDS011;37248;59.350;18.050;2023-02-11T04:44:57;1.57;;;0.27;;
51184;SDS011;37248;59.350;18.050;2023-02-11T04:47:23;1.03;;;0.23;;
51184;SDS011;37248;59.350;18.050;2023-02-11T04:49:48;2.50;;;0.20;;
51184;SDS011;37248;59.350;18.050;2023-02-11T04:52:13;2.90;;;0.40;;
51184;SDS011;37248;59.350;18.050;2023-02-11T04:54:39;1.07;;;0.30;;
51184;SDS011;37248;59.350;18.050;2023-02-11T04:57:04;1.85;;;0.22;;
51184;SDS011;37248;59.350;18.050;2023-02-11T04:59:30;2.17;;;0.30;;
51184;SDS011;37248;59.350;18.050;2023-02-11T05:01:55;2.20;;;0.30;;
51184;SDS011;37248;59.350;18.050;2023-02-11T05:04:20;9.60;;;0.33;;
51184;SDS011;37248;59.350;18.050;2023-02-11T05:06:46;0.43;;;0.13;;
51184;SDS011;37248;59.350;18.050;2023-02-11T05:09:12;1.23;;;0.40;;
51184;SDS011;37248;59.350;18.050;2023-02-11T05:11:37;17.63;;;0.70;;
51184;SDS011;37248;59.350;18.050;2023-02-11T05:14:03;4.70;;;0.35;;
51184;SDS011;37248;59.350;18.050;2023-02-11T05:16:29;1.55;;;0.30;;
51184;SDS011;37248;59.350;18.050;2023-02-11T05:18:54;12.77;;;0.50;;
51184;SDS011;37248;59.350;18.050;2023-02-11T05:21:20;4.78;;;0.60;;
51184;SDS011;37248;59.350;18.050;2023-02-11T05:23:46;5.03;;;0.50;;
51184;SDS011;37248;59.350;18.050;2023-02-11T05:26:11;4.70;;;0.40;;
51184;SDS011;37248;59.350;18.050;2023-02-11T05:28:37;4.45;;;0.70;;
51184;SDS011;37248;59.350;18.050;2023-02-11T05:31:02;1.10;;;0.27;;
51184;SDS011;37248;59.350;18.050;2023-02-11T05:33:28;3.37;;;0.60;;
51184;SDS011;37248;59.350;18.050;2023-02-11T05:35:59;1.73;;;0.50;;
51184;SDS011;37248;59.350;18.050;2023-02-11T05:38:26;1.70;;;0.30;;
51184;SDS011;37248;59.350;18.050;2023-02-11T05:40:51;3.23;;;0.40;;
51184;SDS011;37248;59.350;18.050;2023-02-11T05:43:16;3.40;;;0.40;;
51184;SDS011;37248;59.350;18.050;2023-02-11T05:45:41;2.57;;;0.20;;
51184;SDS011;37248;59.350;18.050;2023-02-11T05:48:07;1.45;;;0.30;;
51184;SDS011;37248;59.350;18.050;2023-02-11T05:50:32;1.47;;;0.40;;
51184;SDS011;37248;59.350;18.050;2023-02-11T05:52:57;0.70;;;0.20;;
51184;SDS011;37248;59.350;18.050;2023-02-11T05:55:22;1.23;;;0.20;;
51184;SDS011;37248;59.350;18.050;2023-02-11T05:57:47;3.17;;;0.30;;
51184;SDS011;37248;59.350;18.050;2023-02-11T06:00:13;0.93;;;0.30;;
51184;SDS011;37248;59.350;18.050;2023-02-11T06:02:38;2.10;;;0.30;;
51184;SDS011;37248;59.350;18.050;2023-02-11T06:05:04;1.50;;;0.40;;
51184;SDS011;37248;59.350;18.050;2023-02-11T06:07:29;3.20;;;0.40;;
51184;SDS011;37248;59.350;18.050;2023-02-11T06:09:54;1.50;;;0.30;;
51184;SDS011;37248;59.350;18.050;2023-02-11T06:12:20;1.33;;;0.20;;
51184;SDS011;37248;59.350;18.050;2023-02-11T06:14:45;2.28;;;0.30;;
51184;SDS011;37248;59.350;18.050;2023-02-11T06:17:10;0.27;;;0.10;;
51184;SDS011;37248;59.350;18.050;2023-02-11T06:19:35;2.47;;;0.20;;
51184;SDS011;37248;59.350;18.050;2023-02-11T06:22:01;2.10;;;0.40;;
51184;SDS011;37248;59.350;18.050;2023-02-11T06:24:26;0.77;;;0.30;;
51184;SDS011;37248;59.350;18.050;2023-02-11T06:26:51;0.87;;;0.30;;
51184;SDS011;37248;59.350;18.050;2023-02-11T06:29:17;2.90;;;0.40;;
51184;SDS011;37248;59.350;18.050;2023-02-11T06:31:42;0.97;;;0.30;;
51184;SDS011;37248;59.350;18.050;2023-02-11T06:34:08;1.50;;;0.40;;
51184;SDS011;37248;59.350;18.050;2023-02-11T06:36:34;0.80;;;0.28;;
51184;SDS011;37248;59.350;18.050;2023-02-11T06:39:00;1.52;;;0.25;;
51184;SDS011;37248;59.350;18.050;2023-02-11T06:41:25;1.20;;;0.30;;
51184;SDS011;37248;59.350;18.050;2023-02-11T06:43:51;2.00;;;0.40;;
51184;SDS011;37248;59.350;18.050;2023-02-11T06:46:16;1.70;;;0.22;;
51184;SDS011;37248;59.350;18.050;2023-02-11T06:48:41;5.80;;;0.47;;
51184;SDS011;37248;59.350;18.050;2023-02-11T06:51:08;0.90;;;0.20;;
51184;SDS011;37248;59.350;18.050;2023-02-11T06:53:37;1.00;;;0.20;;
51184;SDS011;37248;59.350;18.050;2023-02-11T06:56:04;0.68;;;0.20;;
51184;SDS011;37248;59.350;18.050;2023-02-11T06:58:29;1.63;;;0.20;;
51184;SDS011;37248;59.350;18.050;2023-02-11T07:00:54;2.30;;;0.30;;
51184;SDS011;37248;59.350;18.050;2023-02-11T07:03:20;1.00;;;0.20;;
51184;SDS011;37248;59.350;18.050;2023-02-11T07:05:45;1.07;;;0.30;;
51184;SDS011;37248;59.350;18.050;2023-02-11T07:08:11;2.67;;;0.40;;
51184;SDS011;37248;59.350;18.050;2023-02-11T07:10:36;1.45;;;0.20;;
51184;SDS011;37248;59.350;18.050;2023-02-11T07:13:01;2.57;;;0.30;;
51184;SDS011;37248;59.350;18.050;2023-02-11T07:15:26;1.20;;;0.20;;
51184;SDS011;37248;59.350;18.050;2023-02-11T07:17:52;1.30;;;0.23;;
51184;SDS011;37248;59.350;18.050;2023-02-11T07:20:17;4.13;;;0.27;;
51184;SDS011;37248;59.350;18.050;2023-02-11T07:22:42;0.80;;;0.30;;
51184;SDS011;37248;59.350;18.050;2023-02-11T07:25:08;4.70;;;0.20;;
51184;SDS011;37248;59.350;18.050;2023-02-11T07:27:33;1.50;;;0.30;;
51184;SDS011;37248;59.350;18.050;2023-02-11T07:29:58;1.50;;;0.17;;
51184;SDS011;37248;59.350;18.050;2023-02-11T07:32:23;0.73;;;0.30;;
51184;SDS011;37248;59.350;18.050;2023-02-11T07:34:49;0.83;;;0.20;;
51184;SDS011;37248;59.350;18.050;2023-02-11T07:37:14;0.70;;;0.20;;
51184;SDS011;37248;59.350;18.050;2023-02-11T07:39:39;1.40;;;0.20;;
51184;SDS011;37248;59.350;18.050;2023-02-11T07:42:05;1.83;;;0.30;;
51184;SDS011;37248;59.350;18.050;2023-02-11T07:44:30;1.10;;;0.30;;
51184;SDS011;37248;59.350;18.050;2023-02-11T07:46:57;5.00;;;0.40;;
51184;SDS011;37248;59.350;18.050;2023-02-11T07:49:22;1.33;;;0.33;;
51184;SDS011;37248;59.350;18.050;2023-02-11T07:51:48;4.30;;;0.23;;
51184;SDS011;37248;59.350;18.050;2023-02-11T07:54:15;7.40;;;0.50;;
51184;SDS011;37248;59.350;18.050;2023-02-11T07:56:40;1.50;;;0.37;;
51184;SDS011;37248;59.350;18.050;2023-02-11T07:59:05;12.70;;;0.60;;
51184;SDS011;37248;59.350;18.050;2023-02-11T08:01:31;14.00;;;0.70;;
51184;SDS011;37248;59.350;18.050;2023-02-11T08:03:57;14.20;;;1.20;;
51184;SDS011;37248;59.350;18.050;2023-02-11T08:06:23;5.60;;;0.60;;
51184;SDS011;37248;59.350;18.050;2023-02-11T08:08:49;2.03;;;0.50;;
51184;SDS011;37248;59.350;18.050;2023-02-11T08:13:39;2.93;;;0.53;;
51184;SDS011;37248;59.350;18.050;2023-02-11T08:16:05;7.87;;;0.50;;
51184;SDS011;37248;59.350;18.050;2023-02-11T08:18:31;6.00;;;0.50;;
51184;SDS011;37248;59.350;18.050;2023-02-11T08:21:02;9.30;;;0.60;;
51184;SDS011;37248;59.350;18.050;2023-02-11T08:23:28;2.67;;;0.50;;
51184;SDS011;37248;59.350;18.050;2023-02-11T08:25:53;4.73;;;0.53;;
51184;SDS011;37248;59.350;18.050;2023-02-11T08:28:18;5.22;;;0.40;;
51184;SDS011;37248;59.350;18.050;2023-02-11T08:30:43;5.83;;;0.60;;
51184;SDS011;37248;59.350;18.050;2023-02-11T08:33:08;1.80;;;0.50;;
51184;SDS011;37248;59.350;18.050;2023-02-11T08:35:34;1.27;;;0.33;;
51184;SDS011;37248;59.350;18.050;2023-02-11T08:37:59;1.67;;;0.40;;
51184;SDS011;37248;59.350;18.050;2023-02-11T08:40:24;2.90;;;0.80;;
51184;SDS011;37248;59.350;18.050;2023-02-11T08:42:50;1.73;;;0.38;;
51184;SDS011;37248;59.350;18.050;2023-02-11T08:45:15;17.07;;;1.00;;
51184;SDS011;37248;59.350;18.050;2023-02-11T08:47:40;14.93;;;1.10;;
51184;SDS011;37248;59.350;18.050;2023-02-11T08:50:05;14.50;;;0.83;;
51184;SDS011;37248;59.350;18.050;2023-02-11T08:52:31;7.30;;;0.87;;
51184;SDS011;37248;59.350;18.050;2023-02-11T08:54:56;8.37;;;0.80;;
51184;SDS011;37248;59.350;18.050;2023-02-11T08:57:22;3.13;;;0.57;;
51184;SDS011;37248;59.350;18.050;2023-02-11T08:59:47;6.93;;;0.60;;
51184;SDS011;37248;59.350;18.050;2023-02-11T09:02:13;6.93;;;1.00;;
51184;SDS011;37248;59.350;18.050;2023-02-11T09:04:38;4.67;;;0.70;;
51184;SDS011;37248;59.350;18.050;2023-02-11T09:07:04;6.40;;;1.00;;
51184;SDS011;37248;59.350;18.050;2023-02-11T09:09:29;6.03;;;0.60;;
51184;SDS011;37248;59.350;18.050;2023-02-11T09:11:55;4.13;;;0.57;;
51184;SDS011;37248;59.350;18.050;2023-02-11T09:14:21;6.03;;;0.50;;
51184;SDS011;37248;59.350;18.050;2023-02-11T09:16:48;4.25;;;0.52;;
51184;SDS011;37248;59.350;18.050;2023-02-11T09:19:14;8.35;;;0.68;;
51184;SDS011;37248;59.350;18.050;2023-02-11T09:21:39;6.07;;;0.90;;
51184;SDS011;37248;59.350;18.050;2023-02-11T09:24:05;26.10;;;1.63;;
51184;SDS011;37248;59.350;18.050;2023-02-11T09:26:31;28.63;;;2.17;;
51184;SDS011;37248;59.350;18.050;2023-02-11T09:28:57;38.95;;;2.35;;
51184;SDS011;37248;59.350;18.050;2023-02-11T09:31:23;17.30;;;1.80;;
51184;SDS011;37248;59.350;18.050;2023-02-11T09:33:50;34.22;;;2.63;;
51184;SDS011;37248;59.350;18.050;2023-02-11T09:36:20;16.50;;;1.40;;
51184;SDS011;37248;59.350;18.050;2023-02-11T09:38:45;18.63;;;1.80;;
51184;SDS011;37248;59.350;18.050;2023-02-11T09:43:58;23.60;;;2.38;;
51184;SDS011;37248;59.350;18.050;2023-02-11T09:46:26;13.23;;;1.37;;
51184;SDS011;37248;59.350;18.050;2023-02-11T09:48:54;10.63;;;1.83;;
51184;SDS011;37248;59.350;18.050;2023-02-11T09:51:38;15.30;;;1.75;;
51184;SDS011;37248;59.350;18.050;2023-02-11T09:54:12;12.97;;;1.60;;
51184;SDS011;37248;59.350;18.050;2023-02-11T09:56:40;11.95;;;1.80;;
51184;SDS011;37248;59.350;18.050;2023-02-11T09:59:09;11.18;;;1.55;;
51184;SDS011;37248;59.350;18.050;2023-02-11T10:07:30;12.65;;;1.88;;
51184;SDS011;37248;59.350;18.050;2023-02-11T10:22:09;10.23;;;1.40;;
51184;SDS011;37248;59.350;18.050;2023-02-11T10:24:36;6.97;;;1.95;;
51184;SDS011;37248;59.350;18.050;2023-02-11T10:27:13;8.13;;;2.03;;
51184;SDS011;37248;59.350;18.050;2023-02-11T10:29:53;9.98;;;2.15;;
51184;SDS011;37248;59.350;18.050;2023-02-11T10:34:46;11.60;;;1.37;;
51184;SDS011;37248;59.350;18.050;2023-02-11T10:37:11;11.13;;;1.90;;
51184;SDS011;37248;59.350;18.050;2023-02-11T10:39:37;9.93;;;1.15;;
51184;SDS011;37248;59.350;18.050;2023-02-11T10:42:04;6.30;;;1.15;;
51184;SDS011;37248;59.350;18.050;2023-02-11T10:46:58;8.80;;;1.60;;
51184;SDS011;37248;59.350;18.050;2023-02-11T10:52:16;8.25;;;1.20;;
51184;SDS011;37248;59.350;18.050;2023-02-11T10:54:58;9.68;;;1.15;;
51184;SDS011;37248;59.350;18.050;2023-02-11T10:57:25;6.47;;;1.50;;
51184;SDS011;37248;59.350;18.050;2023-02-11T10:59:55;4.88;;;1.10;;
51184;SDS011;37248;59.350;18.050;2023-02-11T11:02:30;4.95;;;1.48;;
51184;SDS011;37248;59.350;18.050;2023-02-11T11:04:59;3.83;;;1.00;;
51184;SDS011;37248;59.350;18.050;2023-02-11T11:07:26;5.38;;;1.20;;
51184;SDS011;37248;59.350;18.050;2023-02-11T11:14:55;3.73;;;0.80;;
51184;SDS011;37248;59.350;18.050;2023-02-11T11:17:21;4.57;;;1.13;;
51184;SDS011;37248;59.350;18.050;2023-02-11T11:19:46;5.25;;;1.33;;
51184;SDS011;37248;59.350;18.050;2023-02-11T11:22:19;7.70;;;1.33;;
51184;SDS011;37248;59.350;18.050;2023-02-11T11:24:46;4.50;;;0.98;;
51184;SDS011;37248;59.350;18.050;2023-02-11T11:27:18;5.63;;;1.53;;
51184;SDS011;37248;59.350;18.050;2023-02-11T11:29:45;7.85;;;1.42;;
51184;SDS011;37248;59.350;18.050;2023-02-11T11:32:18;5.65;;;1.13;;
51184;SDS011;37248;59.350;18.050;2023-02-11T11:34:48;8.30;;;1.30;;
51184;SDS011;37248;59.350;18.050;2023-02-11T11:37:22;5.43;;;1.00;;
51184;SDS011;37248;59.350;18.050;2023-02-11T11:42:37;6.13;;;1.23;;
51184;SDS011;37248;59.350;18.050;2023-02-11T11:53:15;8.95;;;1.40;;
51184;SDS011;37248;59.350;18.050;2023-02-11T11:56:04;6.70;;;1.47;;
51184;SDS011;37248;59.350;18.050;2023-02-11T11:58:28;6.72;;;1.08;;
51184;SDS011;37248;59.350;18.050;2023-02-11T12:00:58;6.00;;;0.98;;
51184;SDS011;37248;59.350;18.050;2023-02-11T12:10:56;3.67;;;0.70;;
51184;SDS011;37248;59.350;18.050;2023-02-11T12:26:19;5.60;;;1.17;;
51184;SDS011;37248;59.350;18.050;2023-02-11T12:36:53;12.48;;;1.58;;
51184;SDS011;37248;59.350;18.050;2023-02-11T12:39:39;9.32;;;1.45;;
51184;SDS011;37248;59.350;18.050;2023-02-11T12:47:34;10.57;;;1.55;;
51184;SDS011;37248;59.350;18.050;2023-02-11T12:50:16;15.85;;;2.10;;
51184;SDS011;37248;59.350;18.050;2023-02-11T12:55:28;26.25;;;2.35;;
51184;SDS011;37248;59.350;18.050;2023-02-11T12:57:55;35.30;;;2.85;;
51184;SDS011;37248;59.350;18.050;2023-02-11T13:00:22;33.28;;;4.13;;
51184;SDS011;37248;59.350;18.050;2023-02-11T13:02:55;25.90;;;3.53;;
51184;SDS011;37248;59.350;18.050;2023-02-11T13:08:03;38.10;;;3.10;;
51184;SDS011;37248;59.350;18.050;2023-02-11T13:12:53;23.20;;;2.80;;
51184;SDS011;37248;59.350;18.050;2023-02-11T13:15:39;24.23;;;2.40;;
51184;SDS011;37248;59.350;18.050;2023-02-11T13:20:50;29.38;;;3.45;;
51184;SDS011;37248;59.350;18.050;2023-02-11T13:23:21;17.13;;;2.50;;
51184;SDS011;37248;59.350;18.050;2023-02-11T13:25:52;16.08;;;2.10;;
51184;SDS011;37248;59.350;18.050;2023-02-11T13:30:46;16.52;;;2.20;;
51184;SDS011;37248;59.350;18.050;2023-02-11T13:40:40;11.52;;;2.20;;
51184;SDS011;37248;59.350;18.050;2023-02-11T13:43:06;18.07;;;2.87;;
51184;SDS011;37248;59.350;18.050;2023-02-11T13:45:44;13.90;;;2.25;;
51184;SDS011;37248;59.350;18.050;2023-02-11T13:50:44;13.55;;;1.63;;
51184;SDS011;37248;59.350;18.050;2023-02-11T13:53:11;20.25;;;2.47;;
51184;SDS011;37248;59.350;18.050;2023-02-11T13:55:37;16.00;;;2.37;;
51184;SDS011;37248;59.350;18.050;2023-02-11T14:06:38;8.07;;;1.60;;
51184;SDS011;37248;59.350;18.050;2023-02-11T14:18:56;10.97;;;1.40;;
51184;SDS011;37248;59.350;18.050;2023-02-11T14:23:51;6.00;;;1.30;;
51184;SDS011;37248;59.350;18.050;2023-02-11T14:36:37;13.20;;;2.10;;
51184;SDS011;37248;59.350;18.050;2023-02-11T14:41:34;6.73;;;1.97;;
51184;SDS011;37248;59.350;18.050;2023-02-11T14:44:03;13.52;;;2.53;;
51184;SDS011;37248;59.350;18.050;2023-02-11T14:46:30;9.10;;;2.08;;
51184;SDS011;37248;59.350;18.050;2023-02-11T14:48:57;6.47;;;2.00;;
51184;SDS011;37248;59.350;18.050;2023-02-11T14:51:44;9.63;;;1.70;;
51184;SDS011;37248;59.350;18.050;2023-02-11T14:54:16;9.13;;;2.17;;
51184;SDS011;37248;59.350;18.050;2023-02-11T14:56:42;7.45;;;2.30;;
51184;SDS011;37248;59.350;18.050;2023-02-11T14:59:19;8.15;;;2.20;;
51184;SDS011;37248;59.350;18.050;2023-02-11T15:01:48;7.33;;;2.00;;
51184;SDS011;37248;59.350;18.050;2023-02-11T15:04:35;6.43;;;1.75;;
51184;SDS011;37248;59.350;18.050;2023-02-11T15:07:02;6.70;;;1.67;;
51184;SDS011;37248;59.350;18.050;2023-02-11T15:09:31;6.45;;;2.05;;
51184;SDS011;37248;59.350;18.050;2023-02-11T15:11:58;10.17;;;1.90;;
51184;SDS011;37248;59.350;18.050;2023-02-11T15:16:49;5.27;;;1.50;;
51184;SDS011;37248;59.350;18.050;2023-02-11T15:19:31;6.30;;;1.70;;
51184;SDS011;37248;59.350;18.050;2023-02-11T15:21:57;5.63;;;1.50;;
51184;SDS011;37248;59.350;18.050;2023-02-11T15:26:58;5.90;;;1.80;;
51184;SDS011;37248;59.350;18.050;2023-02-11T15:29:27;4.07;;;1.73;;
51184;SDS011;37248;59.350;18.050;2023-02-11T15:32:05;6.55;;;1.60;;
51184;SDS011;37248;59.350;18.050;2023-02-11T15:34:31;8.20;;;1.73;;
51184;SDS011;37248;59.350;18.050;2023-02-11T15:36:56;11.73;;;1.85;;
51184;SDS011;37248;59.350;18.050;2023-02-11T15:39:38;13.10;;;2.27;;
51184;SDS011;37248;59.350;18.050;2023-02-11T15:42:15;14.63;;;2.77;;
51184;SDS011;37248;59.350;18.050;2023-02-11T15:44:40;11.63;;;2.13;;
51184;SDS011;37248;59.350;18.050;2023-02-11T15:47:08;12.13;;;3.20;;
51184;SDS011;37248;59.350;18.050;2023-02-11T15:49:34;10.02;;;3.45;;
51184;SDS011;37248;59.350;18.050;2023-02-11T15:51:59;8.45;;;3.08;;
51184;SDS011;37248;59.350;18.050;2023-02-11T15:54:25;6.03;;;2.33;;
51184;SDS011;37248;59.350;18.050;2023-02-11T15:56:52;7.75;;;2.65;;
51184;SDS011;37248;59.350;18.050;2023-02-11T15:59:21;9.13;;;3.00;;
51184;SDS011;37248;59.350;18.050;2023-02-11T16:01:49;11.45;;;2.70;;
51184;SDS011;37248;59.350;18.050;2023-02-11T16:04:22;8.38;;;2.42;;
51184;SDS011;37248;59.350;18.050;2023-02-11T16:06:47;5.65;;;2.17;;
51184;SDS011;37248;59.350;18.050;2023-02-11T16:16:48;7.78;;;2.05;;
51184;SDS011;37248;59.350;18.050;2023-02-11T16:19:16;5.57;;;1.80;;
51184;SDS011;37248;59.350;18.050;2023-02-11T16:21:43;6.18;;;2.13;;
51184;SDS011;37248;59.350;18.050;2023-02-11T16:24:23;6.72;;;2.15;;
51184;SDS011;37248;59.350;18.050;2023-02-11T16:26:50;8.27;;;2.40;;
51184;SDS011;37248;59.350;18.050;2023-02-11T16:29:21;5.88;;;2.13;;
51184;SDS011;37248;59.350;18.050;2023-02-11T16:31:47;8.45;;;2.20;;
51184;SDS011;37248;59.350;18.050;2023-02-11T16:34:21;6.13;;;1.95;;
51184;SDS011;37248;59.350;18.050;2023-02-11T16:36:47;5.57;;;2.10;;
51184;SDS011;37248;59.350;18.050;2023-02-11T16:39:13;4.57;;;1.75;;
51184;SDS011;37248;59.350;18.050;2023-02-11T16:41:38;8.70;;;1.70;;
51184;SDS011;37248;59.350;18.050;2023-02-11T16:44:04;7.72;;;2.13;;
51184;SDS011;37248;59.350;18.050;2023-02-11T16:46:29;8.90;;;2.23;;
51184;SDS011;37248;59.350;18.050;2023-02-11T16:48:55;5.70;;;1.90;;
51184;SDS011;37248;59.350;18.050;2023-02-11T16:51:21;8.90;;;2.33;;
51184;SDS011;37248;59.350;18.050;2023-02-11T16:53:47;6.20;;;2.00;;
51184;SDS011;37248;59.350;18.050;2023-02-11T16:56:13;6.67;;;1.87;;
51184;SDS011;37248;59.350;18.050;2023-02-11T16:58:39;5.03;;;1.70;;
51184;SDS011;37248;59.350;18.050;2023-02-11T17:01:05;4.70;;;1.50;;
51184;SDS011;37248;59.350;18.050;2023-02-11T17:03:30;3.90;;;1.20;;
51184;SDS011;37248;59.350;18.050;2023-02-11T17:06:00;3.90;;;1.40;;
51184;SDS011;37248;59.350;18.050;2023-02-11T17:08:26;7.80;;;1.77;;
51184;SDS011;37248;59.350;18.050;2023-02-11T17:10:52;5.72;;;1.42;;
51184;SDS011;37248;59.350;18.050;2023-02-11T17:13:17;6.13;;;2.00;;
51184;SDS011;37248;59.350;18.050;2023-02-11T17:15:42;5.47;;;1.60;;
51184;SDS011;37248;59.350;18.050;2023-02-11T17:18:09;4.80;;;1.87;;
51184;SDS011;37248;59.350;18.050;2023-02-11T17:20:36;2.85;;;1.40;;
51184;SDS011;37248;59.350;18.050;2023-02-11T17:23:01;3.40;;;1.70;;
51184;SDS011;37248;59.350;18.050;2023-02-11T17:25:26;4.10;;;1.90;;
51184;SDS011;37248;59.350;18.050;2023-02-11T17:27:52;3.87;;;1.90;;
51184;SDS011;37248;59.350;18.050;2023-02-11T17:30:17;4.87;;;2.00;;
51184;SDS011;37248;59.350;18.050;2023-02-11T17:32:43;4.65;;;1.60;;
51184;SDS011;37248;59.350;18.050;2023-02-11T17:35:08;3.40;;;1.67;;
51184;SDS011;37248;59.350;18.050;2023-02-11T17:37:33;7.50;;;1.80;;
51184;SDS011;37248;59.350;18.050;2023-02-11T17:39:59;8.73;;;1.53;;
51184;SDS011;37248;59.350;18.050;2023-02-11T17:42:24;5.87;;;1.70;;
51184;SDS011;37248;59.350;18.050;2023-02-11T17:44:49;5.77;;;1.73;;
51184;SDS011;37248;59.350;18.050;2023-02-11T17:47:14;4.73;;;1.60;;
51184;SDS011;37248;59.350;18.050;2023-02-11T17:49:41;7.45;;;1.55;;